KNYG/NYG METAR and TAF weather

Enter ICAO airport designator
Station Type Date Time Source
KNYG METAR 2022/06/28 14:56 UTC NOAA

KNYG 281456Z 02004KT 10SM CLR 25/09 A3023 RMK AO2 SLP236 T02500089 51007


Station Type Date Time Source
KNYG Decoded METAR 2022/06/28 14:56 UTC NOAA

QUANTICO MARINE CORPS AIRFAC, VA, United States (KNYG) 38-30N 077-18W 3M
Jun 28, 2022 - 10:56 AM EDT / 2022.06.28 1456 UTC
Wind: from the NNE (020 degrees) at 5 MPH (4 KT):0
Visibility: 10 mile(s):0
Sky conditions: clear
Temperature: 77.0 F (25.0 C)
Dew Point: 48.0 F (8.9 C)
Relative Humidity: 35%
Pressure (altimeter): 30.23 in. Hg (1023 hPa)
Pressure tendency: 0.02 inches (0.7 hPa) higher than three hours ago
ob: KNYG 281456Z 02004KT 10SM CLR 25/09 A3023 RMK AO2 SLP236 T02500089 51007
cycle: 15

Station Type Date Time Source
KNYG TAF 2022/06/28 15:48 UTC NOAA

TAF TAF KNYG 2815/2915 01009KT 9999 FEW110 QNH3017INS
BECMG 2820/2822 33009KT 9999 SCT160 QNH3021INS T27/2819Z T17/2910Z

Example: see airport list